Fisher Branch, Canada
Current Conditions -  °F | °C
As of 6:00 PM on Saturday 25 Oct 2014 (Local Time) from CYWG Reporting Station
Few Clouds Few Clouds  
Wind Chill: 50°   Ceiling: Unl
Heat Index: 50°   Visibility: 15mi
Dew Point: 30°   Wind: 9mph
Humidity: 47%   Direction: 320°NW
Pressure: 29.99"   Gusts: NA
Location:  51.08°N, 97.62°W
Report Text: CYWG 252300Z 32008KT 15SM FEW240 10/M01 A2999 RMK CI1 CI TR SLP162
Loading
Personal Weather Stations






























Interactive Weather Map
Tropical Storm Tracking
New forecast layout! Learn more

10-Day Weather Forecast

Advertisements
Track Severe Weather on mobile